sensor_id;sensor_type;location;lat;lon;timestamp;P1;durP1;ratioP1;P2;durP2;ratioP2
71383;SDS011;67558;52.166;5.004;2023-03-14T00:01:09;8.50;;;3.88;;
71383;SDS011;67558;52.166;5.004;2023-03-14T00:03:34;8.32;;;5.50;;
71383;SDS011;67558;52.166;5.004;2023-03-14T00:06:04;10.57;;;4.05;;
71383;SDS011;67558;52.166;5.004;2023-03-14T00:08:30;9.77;;;3.80;;
71383;SDS011;67558;52.166;5.004;2023-03-14T00:10:56;9.43;;;4.03;;
71383;SDS011;67558;52.166;5.004;2023-03-14T00:13:23;5.85;;;3.70;;
71383;SDS011;67558;52.166;5.004;2023-03-14T00:15:48;8.30;;;3.53;;
71383;SDS011;67558;52.166;5.004;2023-03-14T00:18:14;6.75;;;3.70;;
71383;SDS011;67558;52.166;5.004;2023-03-14T00:20:39;8.00;;;4.15;;
71383;SDS011;67558;52.166;5.004;2023-03-14T00:23:04;6.45;;;3.88;;
71383;SDS011;67558;52.166;5.004;2023-03-14T00:25:30;6.00;;;4.13;;
71383;SDS011;67558;52.166;5.004;2023-03-14T00:27:55;4.50;;;4.13;;
71383;SDS011;67558;52.166;5.004;2023-03-14T00:30:20;10.32;;;4.47;;
71383;SDS011;67558;52.166;5.004;2023-03-14T00:32:46;8.70;;;4.88;;
71383;SDS011;67558;52.166;5.004;2023-03-14T00:35:11;5.53;;;3.95;;
71383;SDS011;67558;52.166;5.004;2023-03-14T00:37:37;9.10;;;5.47;;
71383;SDS011;67558;52.166;5.004;2023-03-14T00:40:02;11.23;;;4.63;;
71383;SDS011;67558;52.166;5.004;2023-03-14T00:42:31;4.18;;;3.83;;
71383;SDS011;67558;52.166;5.004;2023-03-14T00:44:57;5.22;;;3.55;;
71383;SDS011;67558;52.166;5.004;2023-03-14T00:47:22;4.82;;;4.15;;
71383;SDS011;67558;52.166;5.004;2023-03-14T00:49:47;6.35;;;4.22;;
71383;SDS011;67558;52.166;5.004;2023-03-14T00:52:13;4.75;;;4.45;;
71383;SDS011;67558;52.166;5.004;2023-03-14T00:54:38;5.13;;;4.20;;
71383;SDS011;67558;52.166;5.004;2023-03-14T00:57:04;14.60;;;4.55;;
71383;SDS011;67558;52.166;5.004;2023-03-14T00:59:29;6.13;;;3.92;;
71383;SDS011;67558;52.166;5.004;2023-03-14T01:01:54;3.85;;;3.33;;
71383;SDS011;67558;52.166;5.004;2023-03-14T01:04:20;5.95;;;4.50;;
71383;SDS011;67558;52.166;5.004;2023-03-14T01:06:45;4.28;;;3.20;;
71383;SDS011;67558;52.166;5.004;2023-03-14T01:09:10;5.80;;;4.22;;
71383;SDS011;67558;52.166;5.004;2023-03-14T01:11:36;5.45;;;4.00;;
71383;SDS011;67558;52.166;5.004;2023-03-14T01:14:02;7.75;;;4.28;;
71383;SDS011;67558;52.166;5.004;2023-03-14T01:16:28;11.45;;;4.00;;
71383;SDS011;67558;52.166;5.004;2023-03-14T01:18:56;6.32;;;3.63;;
71383;SDS011;67558;52.166;5.004;2023-03-14T01:21:22;4.80;;;3.85;;
71383;SDS011;67558;52.166;5.004;2023-03-14T01:23:50;5.03;;;3.75;;
71383;SDS011;67558;52.166;5.004;2023-03-14T01:26:17;4.35;;;3.95;;
71383;SDS011;67558;52.166;5.004;2023-03-14T01:28:44;7.35;;;3.75;;
71383;SDS011;67558;52.166;5.004;2023-03-14T01:31:11;8.10;;;3.90;;
71383;SDS011;67558;52.166;5.004;2023-03-14T01:33:38;4.82;;;3.25;;
71383;SDS011;67558;52.166;5.004;2023-03-14T01:36:04;7.82;;;4.72;;
71383;SDS011;67558;52.166;5.004;2023-03-14T01:38:30;3.80;;;3.45;;
71383;SDS011;67558;52.166;5.004;2023-03-14T01:40:57;6.00;;;3.47;;
71383;SDS011;67558;52.166;5.004;2023-03-14T01:43:22;4.03;;;3.28;;
71383;SDS011;67558;52.166;5.004;2023-03-14T01:48:31;4.80;;;3.30;;
71383;SDS011;67558;52.166;5.004;2023-03-14T01:53:26;4.82;;;2.60;;
71383;SDS011;67558;52.166;5.004;2023-03-14T01:55:52;6.07;;;3.92;;
71383;SDS011;67558;52.166;5.004;2023-03-14T01:58:21;6.57;;;3.25;;
71383;SDS011;67558;52.166;5.004;2023-03-14T02:00:50;9.23;;;3.78;;
71383;SDS011;67558;52.166;5.004;2023-03-14T02:03:16;2.97;;;2.72;;
71383;SDS011;67558;52.166;5.004;2023-03-14T02:05:43;7.70;;;3.33;;
71383;SDS011;67558;52.166;5.004;2023-03-14T02:08:10;9.82;;;3.88;;
71383;SDS011;67558;52.166;5.004;2023-03-14T02:10:42;4.35;;;3.53;;
71383;SDS011;67558;52.166;5.004;2023-03-14T02:13:09;4.03;;;3.78;;
71383;SDS011;67558;52.166;5.004;2023-03-14T02:15:36;4.38;;;3.53;;
71383;SDS011;67558;52.166;5.004;2023-03-14T02:18:02;8.75;;;3.72;;
71383;SDS011;67558;52.166;5.004;2023-03-14T02:20:40;3.45;;;3.22;;
71383;SDS011;67558;52.166;5.004;2023-03-14T02:23:15;10.35;;;3.22;;
71383;SDS011;67558;52.166;5.004;2023-03-14T02:25:51;4.75;;;2.97;;
71383;SDS011;67558;52.166;5.004;2023-03-14T02:28:26;6.70;;;3.47;;
71383;SDS011;67558;52.166;5.004;2023-03-14T02:30:51;8.15;;;3.70;;
71383;SDS011;67558;52.166;5.004;2023-03-14T02:33:17;8.88;;;3.88;;
71383;SDS011;67558;52.166;5.004;2023-03-14T02:35:46;5.30;;;3.70;;
71383;SDS011;67558;52.166;5.004;2023-03-14T02:38:19;4.05;;;3.50;;
71383;SDS011;67558;52.166;5.004;2023-03-14T02:40:46;6.47;;;2.88;;
71383;SDS011;67558;52.166;5.004;2023-03-14T02:43:12;4.68;;;3.45;;
71383;SDS011;67558;52.166;5.004;2023-03-14T02:45:39;4.03;;;3.72;;
71383;SDS011;67558;52.166;5.004;2023-03-14T02:48:16;3.97;;;2.97;;
71383;SDS011;67558;52.166;5.004;2023-03-14T02:50:46;4.10;;;3.67;;
71383;SDS011;67558;52.166;5.004;2023-03-14T02:53:16;5.10;;;3.13;;
71383;SDS011;67558;52.166;5.004;2023-03-14T02:55:49;4.18;;;3.25;;
71383;SDS011;67558;52.166;5.004;2023-03-14T02:58:15;3.40;;;3.20;;
71383;SDS011;67558;52.166;5.004;2023-03-14T03:00:41;7.07;;;3.17;;
71383;SDS011;67558;52.166;5.004;2023-03-14T03:03:07;5.80;;;3.85;;
71383;SDS011;67558;52.166;5.004;2023-03-14T03:05:33;3.85;;;3.47;;
71383;SDS011;67558;52.166;5.004;2023-03-14T03:07:58;6.50;;;3.40;;
71383;SDS011;67558;52.166;5.004;2023-03-14T03:10:24;5.10;;;3.95;;
71383;SDS011;67558;52.166;5.004;2023-03-14T03:12:49;3.35;;;3.05;;
71383;SDS011;67558;52.166;5.004;2023-03-14T03:15:16;5.07;;;3.65;;
71383;SDS011;67558;52.166;5.004;2023-03-14T03:17:41;6.63;;;3.25;;
71383;SDS011;67558;52.166;5.004;2023-03-14T03:20:07;3.78;;;3.50;;
71383;SDS011;67558;52.166;5.004;2023-03-14T03:22:34;3.42;;;3.17;;
71383;SDS011;67558;52.166;5.004;2023-03-14T03:25:01;3.75;;;3.45;;
71383;SDS011;67558;52.166;5.004;2023-03-14T03:27:26;5.90;;;4.50;;
71383;SDS011;67558;52.166;5.004;2023-03-14T03:29:54;6.40;;;3.45;;
71383;SDS011;67558;52.166;5.004;2023-03-14T03:32:19;5.13;;;3.13;;
71383;SDS011;67558;52.166;5.004;2023-03-14T03:34:44;6.80;;;3.38;;
71383;SDS011;67558;52.166;5.004;2023-03-14T03:37:10;7.60;;;3.58;;
71383;SDS011;67558;52.166;5.004;2023-03-14T03:39:35;8.95;;;2.88;;
71383;SDS011;67558;52.166;5.004;2023-03-14T03:42:00;3.25;;;2.95;;
71383;SDS011;67558;52.166;5.004;2023-03-14T03:44:26;6.35;;;3.08;;
71383;SDS011;67558;52.166;5.004;2023-03-14T03:46:51;6.60;;;4.35;;
71383;SDS011;67558;52.166;5.004;2023-03-14T03:49:17;3.63;;;3.17;;
71383;SDS011;67558;52.166;5.004;2023-03-14T03:51:42;4.68;;;3.28;;
71383;SDS011;67558;52.166;5.004;2023-03-14T03:54:07;5.55;;;3.30;;
71383;SDS011;67558;52.166;5.004;2023-03-14T03:56:33;5.50;;;3.47;;
71383;SDS011;67558;52.166;5.004;2023-03-14T03:58:58;5.43;;;4.00;;
71383;SDS011;67558;52.166;5.004;2023-03-14T04:01:24;5.60;;;3.03;;
71383;SDS011;67558;52.166;5.004;2023-03-14T04:03:49;5.40;;;3.58;;
71383;SDS011;67558;52.166;5.004;2023-03-14T04:06:14;2.92;;;2.72;;
71383;SDS011;67558;52.166;5.004;2023-03-14T04:08:40;4.97;;;3.17;;
71383;SDS011;67558;52.166;5.004;2023-03-14T04:11:06;4.95;;;3.35;;
71383;SDS011;67558;52.166;5.004;2023-03-14T04:13:32;3.58;;;3.20;;
71383;SDS011;67558;52.166;5.004;2023-03-14T04:15:57;2.75;;;2.55;;
71383;SDS011;67558;52.166;5.004;2023-03-14T04:18:23;3.97;;;3.47;;
71383;SDS011;67558;52.166;5.004;2023-03-14T04:20:52;6.18;;;3.67;;
71383;SDS011;67558;52.166;5.004;2023-03-14T04:23:21;5.90;;;3.28;;
71383;SDS011;67558;52.166;5.004;2023-03-14T04:25:51;5.30;;;3.40;;
71383;SDS011;67558;52.166;5.004;2023-03-14T04:28:17;6.85;;;3.58;;
71383;SDS011;67558;52.166;5.004;2023-03-14T04:30:43;5.57;;;3.63;;
71383;SDS011;67558;52.166;5.004;2023-03-14T04:33:09;5.57;;;3.90;;
71383;SDS011;67558;52.166;5.004;2023-03-14T04:35:34;5.28;;;3.17;;
71383;SDS011;67558;52.166;5.004;2023-03-14T04:38:01;4.65;;;2.90;;
71383;SDS011;67558;52.166;5.004;2023-03-14T04:40:26;3.95;;;3.75;;
71383;SDS011;67558;52.166;5.004;2023-03-14T04:42:52;11.38;;;5.60;;
71383;SDS011;67558;52.166;5.004;2023-03-14T04:45:17;5.60;;;3.60;;
71383;SDS011;67558;52.166;5.004;2023-03-14T04:47:42;6.50;;;3.78;;
71383;SDS011;67558;52.166;5.004;2023-03-14T04:50:08;3.92;;;2.83;;
71383;SDS011;67558;52.166;5.004;2023-03-14T04:52:34;5.93;;;3.65;;
71383;SDS011;67558;52.166;5.004;2023-03-14T04:54:59;4.03;;;2.72;;
71383;SDS011;67558;52.166;5.004;2023-03-14T04:57:25;4.78;;;3.75;;
71383;SDS011;67558;52.166;5.004;2023-03-14T04:59:50;4.57;;;3.30;;
71383;SDS011;67558;52.166;5.004;2023-03-14T05:02:15;5.88;;;3.25;;
71383;SDS011;67558;52.166;5.004;2023-03-14T05:04:41;7.93;;;3.35;;
71383;SDS011;67558;52.166;5.004;2023-03-14T05:07:06;5.00;;;2.92;;
71383;SDS011;67558;52.166;5.004;2023-03-14T05:09:32;4.10;;;3.17;;
71383;SDS011;67558;52.166;5.004;2023-03-14T05:11:57;3.85;;;3.42;;
71383;SDS011;67558;52.166;5.004;2023-03-14T05:14:23;6.70;;;3.20;;
71383;SDS011;67558;52.166;5.004;2023-03-14T05:16:48;4.43;;;4.03;;
71383;SDS011;67558;52.166;5.004;2023-03-14T05:19:13;4.20;;;3.13;;
71383;SDS011;67558;52.166;5.004;2023-03-14T05:21:39;3.78;;;3.42;;
71383;SDS011;67558;52.166;5.004;2023-03-14T05:24:04;4.43;;;4.05;;
71383;SDS011;67558;52.166;5.004;2023-03-14T05:26:33;5.43;;;3.55;;
71383;SDS011;67558;52.166;5.004;2023-03-14T05:28:58;6.38;;;3.40;;
71383;SDS011;67558;52.166;5.004;2023-03-14T05:31:23;4.88;;;4.47;;
71383;SDS011;67558;52.166;5.004;2023-03-14T05:33:49;3.65;;;3.25;;
71383;SDS011;67558;52.166;5.004;2023-03-14T05:36:14;5.13;;;3.42;;
71383;SDS011;67558;52.166;5.004;2023-03-14T05:38:40;4.55;;;3.70;;
71383;SDS011;67558;52.166;5.004;2023-03-14T05:41:05;3.70;;;3.28;;
71383;SDS011;67558;52.166;5.004;2023-03-14T05:43:31;5.55;;;3.67;;
71383;SDS011;67558;52.166;5.004;2023-03-14T05:45:56;5.95;;;4.47;;
71383;SDS011;67558;52.166;5.004;2023-03-14T05:48:21;5.50;;;4.53;;
71383;SDS011;67558;52.166;5.004;2023-03-14T05:50:47;5.00;;;4.18;;
71383;SDS011;67558;52.166;5.004;2023-03-14T05:53:13;4.15;;;3.75;;
71383;SDS011;67558;52.166;5.004;2023-03-14T05:55:39;3.90;;;3.58;;
71383;SDS011;67558;52.166;5.004;2023-03-14T05:58:04;6.07;;;4.13;;
71383;SDS011;67558;52.166;5.004;2023-03-14T06:00:30;9.00;;;4.30;;
71383;SDS011;67558;52.166;5.004;2023-03-14T06:02:55;4.38;;;3.95;;
71383;SDS011;67558;52.166;5.004;2023-03-14T06:05:20;8.13;;;4.22;;
71383;SDS011;67558;52.166;5.004;2023-03-14T06:07:46;5.75;;;4.53;;
71383;SDS011;67558;52.166;5.004;2023-03-14T06:10:11;4.53;;;3.15;;
71383;SDS011;67558;52.166;5.004;2023-03-14T06:12:36;5.00;;;3.92;;
71383;SDS011;67558;52.166;5.004;2023-03-14T06:15:02;4.68;;;3.45;;
71383;SDS011;67558;52.166;5.004;2023-03-14T06:17:27;2.92;;;2.67;;
71383;SDS011;67558;52.166;5.004;2023-03-14T06:19:53;3.08;;;2.60;;
71383;SDS011;67558;52.166;5.004;2023-03-14T06:22:18;3.50;;;2.55;;
71383;SDS011;67558;52.166;5.004;2023-03-14T06:24:44;2.95;;;2.15;;
71383;SDS011;67558;52.166;5.004;2023-03-14T06:27:09;2.60;;;2.38;;
71383;SDS011;67558;52.166;5.004;2023-03-14T06:29:35;3.83;;;3.53;;
71383;SDS011;67558;52.166;5.004;2023-03-14T06:32:00;2.60;;;2.40;;
71383;SDS011;67558;52.166;5.004;2023-03-14T06:34:25;4.38;;;2.33;;
71383;SDS011;67558;52.166;5.004;2023-03-14T06:36:51;2.35;;;2.25;;
71383;SDS011;67558;52.166;5.004;2023-03-14T06:39:16;2.42;;;2.03;;
71383;SDS011;67558;52.166;5.004;2023-03-14T06:41:41;2.38;;;2.28;;
71383;SDS011;67558;52.166;5.004;2023-03-14T06:44:07;2.08;;;1.95;;
71383;SDS011;67558;52.166;5.004;2023-03-14T06:46:32;2.65;;;2.42;;
71383;SDS011;67558;52.166;5.004;2023-03-14T06:48:57;2.85;;;2.65;;
71383;SDS011;67558;52.166;5.004;2023-03-14T06:51:23;4.22;;;2.50;;
71383;SDS011;67558;52.166;5.004;2023-03-14T06:53:48;3.15;;;2.90;;
71383;SDS011;67558;52.166;5.004;2023-03-14T06:56:14;2.65;;;2.45;;
71383;SDS011;67558;52.166;5.004;2023-03-14T06:58:39;4.22;;;2.53;;
71383;SDS011;67558;52.166;5.004;2023-03-14T07:01:05;3.30;;;3.10;;
71383;SDS011;67558;52.166;5.004;2023-03-14T07:03:31;2.30;;;2.10;;
71383;SDS011;67558;52.166;5.004;2023-03-14T07:05:56;4.95;;;2.88;;
71383;SDS011;67558;52.166;5.004;2023-03-14T07:08:21;3.75;;;3.45;;
71383;SDS011;67558;52.166;5.004;2023-03-14T07:10:47;3.63;;;2.70;;
71383;SDS011;67558;52.166;5.004;2023-03-14T07:13:12;2.85;;;2.28;;
71383;SDS011;67558;52.166;5.004;2023-03-14T07:15:38;3.00;;;2.80;;
71383;SDS011;67558;52.166;5.004;2023-03-14T07:18:03;2.92;;;2.70;;
71383;SDS011;67558;52.166;5.004;2023-03-14T07:20:28;2.85;;;2.70;;
71383;SDS011;67558;52.166;5.004;2023-03-14T07:22:57;6.97;;;2.63;;
71383;SDS011;67558;52.166;5.004;2023-03-14T07:25:24;2.40;;;2.10;;
71383;SDS011;67558;52.166;5.004;2023-03-14T07:27:50;2.42;;;2.33;;
71383;SDS011;67558;52.166;5.004;2023-03-14T07:30:15;1.88;;;1.77;;
71383;SDS011;67558;52.166;5.004;2023-03-14T07:32:41;3.00;;;2.80;;
71383;SDS011;67558;52.166;5.004;2023-03-14T07:35:07;3.50;;;3.15;;
71383;SDS011;67558;52.166;5.004;2023-03-14T07:37:33;3.72;;;3.40;;
71383;SDS011;67558;52.166;5.004;2023-03-14T07:39:59;2.88;;;2.67;;
71383;SDS011;67558;52.166;5.004;2023-03-14T07:42:24;2.38;;;2.17;;
71383;SDS011;67558;52.166;5.004;2023-03-14T07:44:50;2.42;;;2.22;;
71383;SDS011;67558;52.166;5.004;2023-03-14T07:47:15;2.35;;;2.25;;
71383;SDS011;67558;52.166;5.004;2023-03-14T07:49:40;2.67;;;2.47;;
71383;SDS011;67558;52.166;5.004;2023-03-14T07:52:06;4.50;;;2.65;;
71383;SDS011;67558;52.166;5.004;2023-03-14T07:54:31;3.15;;;2.40;;
71383;SDS011;67558;52.166;5.004;2023-03-14T07:56:56;3.05;;;2.10;;
71383;SDS011;67558;52.166;5.004;2023-03-14T07:59:25;2.67;;;2.50;;
71383;SDS011;67558;52.166;5.004;2023-03-14T08:01:51;2.45;;;2.35;;
71383;SDS011;67558;52.166;5.004;2023-03-14T08:04:16;2.35;;;2.15;;
71383;SDS011;67558;52.166;5.004;2023-03-14T08:06:42;3.28;;;3.08;;
71383;SDS011;67558;52.166;5.004;2023-03-14T08:09:07;2.30;;;2.17;;
71383;SDS011;67558;52.166;5.004;2023-03-14T08:11:32;2.00;;;1.90;;
71383;SDS011;67558;52.166;5.004;2023-03-14T08:13:58;2.53;;;2.35;;
71383;SDS011;67558;52.166;5.004;2023-03-14T08:16:23;2.50;;;2.15;;
71383;SDS011;67558;52.166;5.004;2023-03-14T08:18:48;2.47;;;2.00;;
71383;SDS011;67558;52.166;5.004;2023-03-14T08:21:14;2.85;;;1.98;;
71383;SDS011;67558;52.166;5.004;2023-03-14T08:23:39;3.17;;;2.60;;
71383;SDS011;67558;52.166;5.004;2023-03-14T08:26:05;2.28;;;2.17;;
71383;SDS011;67558;52.166;5.004;2023-03-14T08:28:31;2.25;;;2.15;;
71383;SDS011;67558;52.166;5.004;2023-03-14T08:30:58;2.85;;;2.47;;
71383;SDS011;67558;52.166;5.004;2023-03-14T08:33:24;2.00;;;1.90;;
71383;SDS011;67558;52.166;5.004;2023-03-14T08:35:52;1.63;;;1.48;;
71383;SDS011;67558;52.166;5.004;2023-03-14T08:38:24;1.88;;;1.73;;
71383;SDS011;67558;52.166;5.004;2023-03-14T08:40:58;2.63;;;2.42;;
71383;SDS011;67558;52.166;5.004;2023-03-14T08:43:26;1.98;;;1.70;;
71383;SDS011;67558;52.166;5.004;2023-03-14T08:45:57;4.72;;;2.28;;
71383;SDS011;67558;52.166;5.004;2023-03-14T08:48:23;3.97;;;2.35;;
71383;SDS011;67558;52.166;5.004;2023-03-14T08:50:50;2.00;;;1.90;;
71383;SDS011;67558;52.166;5.004;2023-03-14T08:53:16;2.95;;;2.78;;
71383;SDS011;67558;52.166;5.004;2023-03-14T08:55:42;2.03;;;1.88;;
71383;SDS011;67558;52.166;5.004;2023-03-14T08:58:08;1.98;;;1.88;;
71383;SDS011;67558;52.166;5.004;2023-03-14T09:00:35;3.40;;;2.38;;
71383;SDS011;67558;52.166;5.004;2023-03-14T09:03:01;2.60;;;1.90;;
71383;SDS011;67558;52.166;5.004;2023-03-14T09:05:27;2.63;;;2.40;;
71383;SDS011;67558;52.166;5.004;2023-03-14T09:07:53;4.80;;;2.25;;
71383;SDS011;67558;52.166;5.004;2023-03-14T09:10:19;6.30;;;2.08;;
71383;SDS011;67558;52.166;5.004;2023-03-14T09:12:45;3.47;;;2.60;;
71383;SDS011;67558;52.166;5.004;2023-03-14T09:15:11;5.00;;;2.47;;
71383;SDS011;67558;52.166;5.004;2023-03-14T09:17:37;7.32;;;2.83;;
71383;SDS011;67558;52.166;5.004;2023-03-14T09:20:03;5.13;;;2.38;;
71383;SDS011;67558;52.166;5.004;2023-03-14T09:22:32;8.60;;;3.03;;
71383;SDS011;67558;52.166;5.004;2023-03-14T09:25:00;6.82;;;2.72;;
71383;SDS011;67558;52.166;5.004;2023-03-14T09:27:27;4.72;;;2.50;;
71383;SDS011;67558;52.166;5.004;2023-03-14T09:29:55;7.50;;;3.40;;
71383;SDS011;67558;52.166;5.004;2023-03-14T09:32:20;4.93;;;2.97;;
71383;SDS011;67558;52.166;5.004;2023-03-14T09:34:46;5.45;;;2.55;;
71383;SDS011;67558;52.166;5.004;2023-03-14T09:37:12;16.30;;;2.83;;
71383;SDS011;67558;52.166;5.004;2023-03-14T09:39:37;4.28;;;2.55;;
71383;SDS011;67558;52.166;5.004;2023-03-14T09:42:05;6.07;;;2.67;;
71383;SDS011;67558;52.166;5.004;2023-03-14T09:44:37;3.50;;;2.17;;
71383;SDS011;67558;52.166;5.004;2023-03-14T09:47:09;3.85;;;2.40;;
71383;SDS011;67558;52.166;5.004;2023-03-14T09:49:42;5.40;;;2.53;;
71383;SDS011;67558;52.166;5.004;2023-03-14T09:52:23;3.97;;;2.50;;
71383;SDS011;67558;52.166;5.004;2023-03-14T09:54:58;2.83;;;2.40;;
71383;SDS011;67558;52.166;5.004;2023-03-14T09:57:32;6.63;;;2.55;;
71383;SDS011;67558;52.166;5.004;2023-03-14T10:00:03;2.75;;;2.55;;
71383;SDS011;67558;52.166;5.004;2023-03-14T10:05:49;6.00;;;2.50;;
71383;SDS011;67558;52.166;5.004;2023-03-14T10:08:17;4.60;;;2.72;;
71383;SDS011;67558;52.166;5.004;2023-03-14T10:10:46;4.60;;;2.78;;
71383;SDS011;67558;52.166;5.004;2023-03-14T10:13:22;5.65;;;2.70;;
71383;SDS011;67558;52.166;5.004;2023-03-14T10:15:52;4.10;;;2.25;;
71383;SDS011;67558;52.166;5.004;2023-03-14T10:18:31;4.30;;;2.20;;
71383;SDS011;67558;52.166;5.004;2023-03-14T10:21:02;4.32;;;3.20;;
71383;SDS011;67558;52.166;5.004;2023-03-14T10:26:53;8.88;;;2.75;;
71383;SDS011;67558;52.166;5.004;2023-03-14T10:29:20;3.70;;;2.45;;
71383;SDS011;67558;52.166;5.004;2023-03-14T10:34:21;7.40;;;2.53;;
71383;SDS011;67558;52.166;5.004;2023-03-14T10:36:59;7.68;;;5.35;;
71383;SDS011;67558;52.166;5.004;2023-03-14T10:39:41;3.50;;;3.10;;
71383;SDS011;67558;52.166;5.004;2023-03-14T10:42:30;5.47;;;3.85;;
71383;SDS011;67558;52.166;5.004;2023-03-14T10:45:07;6.47;;;3.13;;
71383;SDS011;67558;52.166;5.004;2023-03-14T10:47:53;3.28;;;2.75;;
71383;SDS011;67558;52.166;5.004;2023-03-14T10:50:26;7.35;;;2.70;;
71383;SDS011;67558;52.166;5.004;2023-03-14T10:52:56;7.88;;;3.05;;
71383;SDS011;67558;52.166;5.004;2023-03-14T10:55:26;9.80;;;2.65;;
71383;SDS011;67558;52.166;5.004;2023-03-14T10:57:52;10.35;;;2.83;;
71383;SDS011;67558;52.166;5.004;2023-03-14T11:00:20;13.43;;;3.17;;
71383;SDS011;67558;52.166;5.004;2023-03-14T11:03:10;5.20;;;2.75;;
71383;SDS011;67558;52.166;5.004;2023-03-14T11:09:02;5.60;;;2.80;;
71383;SDS011;67558;52.166;5.004;2023-03-14T11:11:48;4.60;;;2.92;;
71383;SDS011;67558;52.166;5.004;2023-03-14T11:14:34;5.90;;;2.72;;
71383;SDS011;67558;52.166;5.004;2023-03-14T11:30:35;6.25;;;3.40;;
71383;SDS011;67558;52.166;5.004;2023-03-14T11:33:16;4.22;;;2.40;;
71383;SDS011;67558;52.166;5.004;2023-03-14T11:35:49;4.82;;;2.20;;
71383;SDS011;67558;52.166;5.004;2023-03-14T11:41:08;3.80;;;2.75;;
71383;SDS011;67558;52.166;5.004;2023-03-14T11:43:38;5.68;;;3.00;;
71383;SDS011;67558;52.166;5.004;2023-03-14T11:46:14;6.57;;;2.55;;
71383;SDS011;67558;52.166;5.004;2023-03-14T11:52:09;2.88;;;2.58;;
71383;SDS011;67558;52.166;5.004;2023-03-14T11:54:41;5.38;;;2.40;;
71383;SDS011;67558;52.166;5.004;2023-03-14T11:57:15;5.63;;;2.35;;
71383;SDS011;67558;52.166;5.004;2023-03-14T12:02:30;6.63;;;2.55;;
71383;SDS011;67558;52.166;5.004;2023-03-14T12:13:14;4.47;;;2.83;;
71383;SDS011;67558;52.166;5.004;2023-03-14T12:15:48;5.18;;;2.28;;
71383;SDS011;67558;52.166;5.004;2023-03-14T12:18:20;3.88;;;2.40;;
71383;SDS011;67558;52.166;5.004;2023-03-14T12:20:53;3.15;;;2.63;;
71383;SDS011;67558;52.166;5.004;2023-03-14T12:23:21;4.00;;;2.55;;
71383;SDS011;67558;52.166;5.004;2023-03-14T12:25:47;3.05;;;2.67;;
71383;SDS011;67558;52.166;5.004;2023-03-14T12:28:31;2.78;;;2.55;;
71383;SDS011;67558;52.166;5.004;2023-03-14T12:30:56;3.47;;;2.63;;
71383;SDS011;67558;52.166;5.004;2023-03-14T12:39:19;5.28;;;2.60;;
71383;SDS011;67558;52.166;5.004;2023-03-14T12:42:02;2.53;;;2.42;;
71383;SDS011;67558;52.166;5.004;2023-03-14T12:44:39;13.63;;;3.42;;
71383;SDS011;67558;52.166;5.004;2023-03-14T12:49:41;3.42;;;3.20;;
71383;SDS011;67558;52.166;5.004;2023-03-14T12:52:14;3.75;;;2.47;;
71383;SDS011;67558;52.166;5.004;2023-03-14T13:00:21;4.53;;;2.53;;
71383;SDS011;67558;52.166;5.004;2023-03-14T13:02:49;4.88;;;2.53;;
71383;SDS011;67558;52.166;5.004;2023-03-14T13:05:19;4.00;;;2.58;;
71383;SDS011;67558;52.166;5.004;2023-03-14T13:15:22;4.70;;;2.08;;
71383;SDS011;67558;52.166;5.004;2023-03-14T13:17:51;4.95;;;2.58;;
71383;SDS011;67558;52.166;5.004;2023-03-14T13:20:22;4.85;;;2.28;;
71383;SDS011;67558;52.166;5.004;2023-03-14T13:22:53;4.63;;;2.17;;
71383;SDS011;67558;52.166;5.004;2023-03-14T13:25:19;1.88;;;1.77;;
71383;SDS011;67558;52.166;5.004;2023-03-14T13:27:46;2.90;;;2.45;;
71383;SDS011;67558;52.166;5.004;2023-03-14T13:30:16;2.22;;;2.03;;
71383;SDS011;67558;52.166;5.004;2023-03-14T13:32:46;2.97;;;2.80;;
71383;SDS011;67558;52.166;5.004;2023-03-14T13:35:29;2.33;;;2.20;;
71383;SDS011;67558;52.166;5.004;2023-03-14T13:38:04;3.30;;;2.72;;
71383;SDS011;67558;52.166;5.004;2023-03-14T13:40:31;5.43;;;2.28;;
71383;SDS011;67558;52.166;5.004;2023-03-14T13:43:05;2.85;;;1.90;;
71383;SDS011;67558;52.166;5.004;2023-03-14T13:45:52;4.88;;;2.78;;
71383;SDS011;67558;52.166;5.004;2023-03-14T13:48:21;3.28;;;2.13;;
71383;SDS011;67558;52.166;5.004;2023-03-14T13:50:51;4.82;;;2.58;;
71383;SDS011;67558;52.166;5.004;2023-03-14T13:53:22;5.60;;;2.35;;
71383;SDS011;67558;52.166;5.004;2023-03-14T13:55:48;10.70;;;2.47;;
71383;SDS011;67558;52.166;5.004;2023-03-14T13:58:24;2.88;;;2.08;;
71383;SDS011;67558;52.166;5.004;2023-03-14T14:01:02;2.88;;;2.53;;
71383;SDS011;67558;52.166;5.004;2023-03-14T14:03:31;2.78;;;2.40;;
71383;SDS011;67558;52.166;5.004;2023-03-14T14:05:59;3.83;;;2.00;;
71383;SDS011;67558;52.166;5.004;2023-03-14T14:08:25;4.68;;;2.33;;
71383;SDS011;67558;52.166;5.004;2023-03-14T14:10:52;4.00;;;2.53;;
71383;SDS011;67558;52.166;5.004;2023-03-14T14:13:23;4.28;;;2.30;;
71383;SDS011;67558;52.166;5.004;2023-03-14T14:15:51;4.65;;;2.65;;
71383;SDS011;67558;52.166;5.004;2023-03-14T14:18:18;2.83;;;2.33;;
71383;SDS011;67558;52.166;5.004;2023-03-14T14:20:47;5.95;;;2.58;;
71383;SDS011;67558;52.166;5.004;2023-03-14T14:25:45;4.30;;;2.42;;
71383;SDS011;67558;52.166;5.004;2023-03-14T14:28:14;2.67;;;2.47;;
71383;SDS011;67558;52.166;5.004;2023-03-14T14:30:42;3.25;;;2.40;;
71383;SDS011;67558;52.166;5.004;2023-03-14T14:33:26;5.47;;;2.47;;
71383;SDS011;67558;52.166;5.004;2023-03-14T14:35:53;2.88;;;2.05;;
71383;SDS011;67558;52.166;5.004;2023-03-14T14:38:24;2.50;;;2.30;;
71383;SDS011;67558;52.166;5.004;2023-03-14T14:40:51;5.18;;;3.60;;
71383;SDS011;67558;52.166;5.004;2023-03-14T14:43:22;5.10;;;2.33;;
71383;SDS011;67558;52.166;5.004;2023-03-14T14:45:50;2.35;;;2.15;;
71383;SDS011;67558;52.166;5.004;2023-03-14T14:48:18;3.22;;;2.08;;
71383;SDS011;67558;52.166;5.004;2023-03-14T14:50:50;2.50;;;2.30;;
71383;SDS011;67558;52.166;5.004;2023-03-14T14:53:23;3.75;;;3.40;;
71383;SDS011;67558;52.166;5.004;2023-03-14T14:55:53;1.95;;;1.85;;
71383;SDS011;67558;52.166;5.004;2023-03-14T14:58:32;2.67;;;1.98;;
71383;SDS011;67558;52.166;5.004;2023-03-14T15:01:11;2.60;;;2.50;;
71383;SDS011;67558;52.166;5.004;2023-03-14T15:03:43;3.88;;;1.98;;
71383;SDS011;67558;52.166;5.004;2023-03-14T15:06:15;2.20;;;2.10;;
71383;SDS011;67558;52.166;5.004;2023-03-14T15:08:45;5.40;;;2.80;;
71383;SDS011;67558;52.166;5.004;2023-03-14T15:11:15;2.63;;;2.42;;
71383;SDS011;67558;52.166;5.004;2023-03-14T15:18:43;3.83;;;3.63;;
71383;SDS011;67558;52.166;5.004;2023-03-14T15:21:09;2.83;;;2.63;;
71383;SDS011;67558;52.166;5.004;2023-03-14T15:23:35;2.53;;;2.33;;
71383;SDS011;67558;52.166;5.004;2023-03-14T15:26:01;3.85;;;2.80;;
71383;SDS011;67558;52.166;5.004;2023-03-14T15:28:28;3.95;;;2.83;;
71383;SDS011;67558;52.166;5.004;2023-03-14T15:30:55;6.47;;;2.95;;
71383;SDS011;67558;52.166;5.004;2023-03-14T15:33:22;4.32;;;2.88;;
71383;SDS011;67558;52.166;5.004;2023-03-14T15:35:49;3.38;;;2.97;;
71383;SDS011;67558;52.166;5.004;2023-03-14T15:38:15;4.07;;;3.30;;
71383;SDS011;67558;52.166;5.004;2023-03-14T15:40:44;2.83;;;2.35;;
71383;SDS011;67558;52.166;5.004;2023-03-14T15:43:09;2.75;;;2.10;;
71383;SDS011;67558;52.166;5.004;2023-03-14T15:45:35;2.72;;;2.53;;
71383;SDS011;67558;52.166;5.004;2023-03-14T15:48:00;4.10;;;2.92;;
71383;SDS011;67558;52.166;5.004;2023-03-14T15:50:26;2.72;;;2.40;;
71383;SDS011;67558;52.166;5.004;2023-03-14T15:52:51;2.63;;;2.42;;
71383;SDS011;67558;52.166;5.004;2023-03-14T15:55:17;11.13;;;2.92;;
71383;SDS011;67558;52.166;5.004;2023-03-14T15:57:42;2.58;;;2.25;;
71383;SDS011;67558;52.166;5.004;2023-03-14T16:00:11;3.13;;;2.35;;
71383;SDS011;67558;52.166;5.004;2023-03-14T16:02:39;5.20;;;2.92;;
71383;SDS011;67558;52.166;5.004;2023-03-14T16:05:06;6.25;;;2.65;;
71383;SDS011;67558;52.166;5.004;2023-03-14T16:07:34;2.38;;;2.22;;
71383;SDS011;67558;52.166;5.004;2023-03-14T16:10:00;2.58;;;2.35;;